sensor_id;sensor_type;location;lat;lon;timestamp;P1;P2;P0
56069;PMS5003;41944;52.078;-0.058;2023-02-18T00:00:16;8;7;
56069;PMS5003;41944;52.078;-0.058;2023-02-18T00:00:19;8;7;
56069;PMS5003;41944;52.078;-0.058;2023-02-18T00:02:46;7;7;
56069;PMS5003;41944;52.078;-0.058;2023-02-18T00:05:13;7;7;
56069;PMS5003;41944;52.078;-0.058;2023-02-18T00:07:41;7;7;
56069;PMS5003;41944;52.078;-0.058;2023-02-18T00:10:09;7;7;
56069;PMS5003;41944;52.078;-0.058;2023-02-18T00:12:39;7;7;
56069;PMS5003;41944;52.078;-0.058;2023-02-18T00:15:06;7;7;
56069;PMS5003;41944;52.078;-0.058;2023-02-18T00:17:34;10;9;
56069;PMS5003;41944;52.078;-0.058;2023-02-18T00:20:01;7;7;
56069;PMS5003;41944;52.078;-0.058;2023-02-18T00:22:29;6;6;
56069;PMS5003;41944;52.078;-0.058;2023-02-18T00:24:56;6;6;
56069;PMS5003;41944;52.078;-0.058;2023-02-18T00:27:22;6;6;
56069;PMS5003;41944;52.078;-0.058;2023-02-18T00:29:49;6;5;
56069;PMS5003;41944;52.078;-0.058;2023-02-18T00:32:16;5;5;
56069;PMS5003;41944;52.078;-0.058;2023-02-18T00:34:43;4;4;
56069;PMS5003;41944;52.078;-0.058;2023-02-18T00:37:10;5;5;
56069;PMS5003;41944;52.078;-0.058;2023-02-18T00:39:38;3;3;
56069;PMS5003;41944;52.078;-0.058;2023-02-18T00:42:04;5;3;
56069;PMS5003;41944;52.078;-0.058;2023-02-18T00:44:31;3;3;
56069;PMS5003;41944;52.078;-0.058;2023-02-18T00:46:58;3;3;
56069;PMS5003;41944;52.078;-0.058;2023-02-18T00:49:25;3;3;
56069;PMS5003;41944;52.078;-0.058;2023-02-18T00:51:52;3;3;
56069;PMS5003;41944;52.078;-0.058;2023-02-18T00:54:19;4;4;
56069;PMS5003;41944;52.078;-0.058;2023-02-18T00:56:46;3;3;
56069;PMS5003;41944;52.078;-0.058;2023-02-18T00:59:13;3;3;
56069;PMS5003;41944;52.078;-0.058;2023-02-18T01:01:40;2;2;
56069;PMS5003;41944;52.078;-0.058;2023-02-18T01:04:07;3;3;
56069;PMS5003;41944;52.078;-0.058;2023-02-18T01:06:34;0;0;
56069;PMS5003;41944;52.078;-0.058;2023-02-18T01:09:01;1;1;
56069;PMS5003;41944;52.078;-0.058;2023-02-18T01:11:27;1;1;
56069;PMS5003;41944;52.078;-0.058;2023-02-18T01:13:54;0;0;
56069;PMS5003;41944;52.078;-0.058;2023-02-18T01:16:21;0;0;
56069;PMS5003;41944;52.078;-0.058;2023-02-18T01:18:49;1;1;
56069;PMS5003;41944;52.078;-0.058;2023-02-18T01:21:16;0;0;
56069;PMS5003;41944;52.078;-0.058;2023-02-18T01:23:43;2;1;
56069;PMS5003;41944;52.078;-0.058;2023-02-18T01:26:10;0;0;
56069;PMS5003;41944;52.078;-0.058;2023-02-18T01:28:37;1;1;
56069;PMS5003;41944;52.078;-0.058;2023-02-18T01:31:06;0;0;
56069;PMS5003;41944;52.078;-0.058;2023-02-18T01:33:34;0;0;
56069;PMS5003;41944;52.078;-0.058;2023-02-18T01:36:02;0;0;
56069;PMS5003;41944;52.078;-0.058;2023-02-18T01:38:30;0;0;
56069;PMS5003;41944;52.078;-0.058;2023-02-18T01:40:57;0;0;
56069;PMS5003;41944;52.078;-0.058;2023-02-18T01:43:23;0;0;
56069;PMS5003;41944;52.078;-0.058;2023-02-18T01:45:57;1;1;
56069;PMS5003;41944;52.078;-0.058;2023-02-18T01:48:29;0;0;
56069;PMS5003;41944;52.078;-0.058;2023-02-18T01:51:00;0;0;
56069;PMS5003;41944;52.078;-0.058;2023-02-18T01:53:34;0;0;
56069;PMS5003;41944;52.078;-0.058;2023-02-18T01:56:05;0;0;
56069;PMS5003;41944;52.078;-0.058;2023-02-18T01:58:35;0;0;
56069;PMS5003;41944;52.078;-0.058;2023-02-18T02:01:03;0;0;
56069;PMS5003;41944;52.078;-0.058;2023-02-18T02:03:31;0;0;
56069;PMS5003;41944;52.078;-0.058;2023-02-18T02:05:58;0;0;
56069;PMS5003;41944;52.078;-0.058;2023-02-18T02:08:25;0;0;
56069;PMS5003;41944;52.078;-0.058;2023-02-18T02:11:01;0;0;
56069;PMS5003;41944;52.078;-0.058;2023-02-18T02:13:37;0;0;
56069;PMS5003;41944;52.078;-0.058;2023-02-18T02:16:15;0;0;
56069;PMS5003;41944;52.078;-0.058;2023-02-18T02:18:51;0;0;
56069;PMS5003;41944;52.078;-0.058;2023-02-18T02:21:31;0;0;
56069;PMS5003;41944;52.078;-0.058;2023-02-18T02:24:38;3;2;
56069;PMS5003;41944;52.078;-0.058;2023-02-18T02:27:59;0;0;
56069;PMS5003;41944;52.078;-0.058;2023-02-18T02:30:52;2;0;
56069;PMS5003;41944;52.078;-0.058;2023-02-18T02:33:43;0;0;
56069;PMS5003;41944;52.078;-0.058;2023-02-18T02:36:22;0;0;
56069;PMS5003;41944;52.078;-0.058;2023-02-18T02:38:59;2;0;
56069;PMS5003;41944;52.078;-0.058;2023-02-18T02:41:41;0;0;
56069;PMS5003;41944;52.078;-0.058;2023-02-18T02:44:16;0;0;
56069;PMS5003;41944;52.078;-0.058;2023-02-18T02:46:47;2;0;
56069;PMS5003;41944;52.078;-0.058;2023-02-18T02:49:22;0;0;
56069;PMS5003;41944;52.078;-0.058;2023-02-18T02:51:59;1;1;
56069;PMS5003;41944;52.078;-0.058;2023-02-18T02:54:31;1;0;
56069;PMS5003;41944;52.078;-0.058;2023-02-18T02:57:07;4;1;
56069;PMS5003;41944;52.078;-0.058;2023-02-18T03:00:07;0;0;
56069;PMS5003;41944;52.078;-0.058;2023-02-18T03:02:41;0;0;
56069;PMS5003;41944;52.078;-0.058;2023-02-18T03:05:24;0;0;
56069;PMS5003;41944;52.078;-0.058;2023-02-18T03:08:04;2;2;
56069;PMS5003;41944;52.078;-0.058;2023-02-18T03:10:52;1;1;
56069;PMS5003;41944;52.078;-0.058;2023-02-18T03:13:25;2;1;
56069;PMS5003;41944;52.078;-0.058;2023-02-18T03:16:08;2;1;
56069;PMS5003;41944;52.078;-0.058;2023-02-18T03:18:44;0;0;
56069;PMS5003;41944;52.078;-0.058;2023-02-18T03:21:16;0;0;
56069;PMS5003;41944;52.078;-0.058;2023-02-18T03:23:50;1;1;
56069;PMS5003;41944;52.078;-0.058;2023-02-18T03:26:21;0;0;
56069;PMS5003;41944;52.078;-0.058;2023-02-18T03:28:51;1;1;
56069;PMS5003;41944;52.078;-0.058;2023-02-18T03:31:22;1;0;
56069;PMS5003;41944;52.078;-0.058;2023-02-18T03:33:54;2;1;
56069;PMS5003;41944;52.078;-0.058;2023-02-18T03:36:26;2;0;
56069;PMS5003;41944;52.078;-0.058;2023-02-18T03:38:55;4;2;
56069;PMS5003;41944;52.078;-0.058;2023-02-18T03:41:25;3;1;
56069;PMS5003;41944;52.078;-0.058;2023-02-18T03:43:58;0;0;
56069;PMS5003;41944;52.078;-0.058;2023-02-18T03:46:26;1;1;
56069;PMS5003;41944;52.078;-0.058;2023-02-18T03:48:55;0;0;
56069;PMS5003;41944;52.078;-0.058;2023-02-18T03:51:22;2;2;
56069;PMS5003;41944;52.078;-0.058;2023-02-18T03:53:50;1;1;
56069;PMS5003;41944;52.078;-0.058;2023-02-18T03:56:16;2;1;
56069;PMS5003;41944;52.078;-0.058;2023-02-18T03:58:44;1;1;
56069;PMS5003;41944;52.078;-0.058;2023-02-18T04:01:11;0;0;
56069;PMS5003;41944;52.078;-0.058;2023-02-18T04:03:39;3;0;
56069;PMS5003;41944;52.078;-0.058;2023-02-18T04:06:06;0;0;
56069;PMS5003;41944;52.078;-0.058;2023-02-18T04:08:33;1;1;
56069;PMS5003;41944;52.078;-0.058;2023-02-18T04:11:00;2;1;
56069;PMS5003;41944;52.078;-0.058;2023-02-18T04:13:27;4;1;
56069;PMS5003;41944;52.078;-0.058;2023-02-18T04:15:54;2;1;
56069;PMS5003;41944;52.078;-0.058;2023-02-18T04:18:21;2;1;
56069;PMS5003;41944;52.078;-0.058;2023-02-18T04:20:48;4;2;
56069;PMS5003;41944;52.078;-0.058;2023-02-18T04:23:15;2;0;
56069;PMS5003;41944;52.078;-0.058;2023-02-18T04:25:41;2;2;
56069;PMS5003;41944;52.078;-0.058;2023-02-18T04:28:09;1;1;
56069;PMS5003;41944;52.078;-0.058;2023-02-18T04:30:38;1;0;
56069;PMS5003;41944;52.078;-0.058;2023-02-18T04:33:05;5;2;
56069;PMS5003;41944;52.078;-0.058;2023-02-18T04:35:32;2;1;
56069;PMS5003;41944;52.078;-0.058;2023-02-18T04:37:58;1;1;
56069;PMS5003;41944;52.078;-0.058;2023-02-18T04:40:25;0;0;
56069;PMS5003;41944;52.078;-0.058;2023-02-18T04:42:52;3;2;
56069;PMS5003;41944;52.078;-0.058;2023-02-18T04:45:19;4;3;
56069;PMS5003;41944;52.078;-0.058;2023-02-18T04:47:46;3;1;
56069;PMS5003;41944;52.078;-0.058;2023-02-18T04:50:13;1;1;
56069;PMS5003;41944;52.078;-0.058;2023-02-18T04:52:41;5;5;
56069;PMS5003;41944;52.078;-0.058;2023-02-18T04:55:08;2;0;
56069;PMS5003;41944;52.078;-0.058;2023-02-18T04:57:35;0;0;
56069;PMS5003;41944;52.078;-0.058;2023-02-18T05:00:02;1;1;
56069;PMS5003;41944;52.078;-0.058;2023-02-18T05:02:30;1;1;
56069;PMS5003;41944;52.078;-0.058;2023-02-18T05:04:57;2;2;
56069;PMS5003;41944;52.078;-0.058;2023-02-18T05:07:24;2;2;
56069;PMS5003;41944;52.078;-0.058;2023-02-18T05:09:51;1;1;
56069;PMS5003;41944;52.078;-0.058;2023-02-18T05:12:18;3;2;
56069;PMS5003;41944;52.078;-0.058;2023-02-18T05:14:45;0;0;
56069;PMS5003;41944;52.078;-0.058;2023-02-18T05:17:12;0;0;
56069;PMS5003;41944;52.078;-0.058;2023-02-18T05:19:40;1;1;
56069;PMS5003;41944;52.078;-0.058;2023-02-18T05:22:07;2;0;
56069;PMS5003;41944;52.078;-0.058;2023-02-18T05:24:33;2;1;
56069;PMS5003;41944;52.078;-0.058;2023-02-18T05:27:00;5;1;
56069;PMS5003;41944;52.078;-0.058;2023-02-18T05:29:27;3;1;
56069;PMS5003;41944;52.078;-0.058;2023-02-18T05:31:55;3;2;
56069;PMS5003;41944;52.078;-0.058;2023-02-18T05:34:21;3;3;
56069;PMS5003;41944;52.078;-0.058;2023-02-18T05:36:48;5;2;
56069;PMS5003;41944;52.078;-0.058;2023-02-18T05:39:15;3;3;
56069;PMS5003;41944;52.078;-0.058;2023-02-18T05:41:42;4;2;
56069;PMS5003;41944;52.078;-0.058;2023-02-18T05:44:09;1;0;
56069;PMS5003;41944;52.078;-0.058;2023-02-18T05:46:36;1;1;
56069;PMS5003;41944;52.078;-0.058;2023-02-18T05:49:03;1;1;
56069;PMS5003;41944;52.078;-0.058;2023-02-18T05:51:30;2;0;
56069;PMS5003;41944;52.078;-0.058;2023-02-18T05:53:56;1;1;
56069;PMS5003;41944;52.078;-0.058;2023-02-18T05:56:23;1;1;
56069;PMS5003;41944;52.078;-0.058;2023-02-18T05:58:50;3;1;
56069;PMS5003;41944;52.078;-0.058;2023-02-18T06:01:17;2;1;
56069;PMS5003;41944;52.078;-0.058;2023-02-18T06:03:44;2;1;
56069;PMS5003;41944;52.078;-0.058;2023-02-18T06:06:11;4;3;
56069;PMS5003;41944;52.078;-0.058;2023-02-18T06:08:38;0;0;
56069;PMS5003;41944;52.078;-0.058;2023-02-18T06:11:05;1;1;
56069;PMS5003;41944;52.078;-0.058;2023-02-18T06:13:32;1;1;
56069;PMS5003;41944;52.078;-0.058;2023-02-18T06:15:59;1;1;
56069;PMS5003;41944;52.078;-0.058;2023-02-18T06:18:26;2;2;
56069;PMS5003;41944;52.078;-0.058;2023-02-18T06:20:53;2;1;
56069;PMS5003;41944;52.078;-0.058;2023-02-18T06:23:21;3;3;
56069;PMS5003;41944;52.078;-0.058;2023-02-18T06:25:48;5;1;
56069;PMS5003;41944;52.078;-0.058;2023-02-18T06:28:15;0;0;
56069;PMS5003;41944;52.078;-0.058;2023-02-18T06:30:43;4;1;
56069;PMS5003;41944;52.078;-0.058;2023-02-18T06:33:11;2;2;
56069;PMS5003;41944;52.078;-0.058;2023-02-18T06:35:38;2;1;
56069;PMS5003;41944;52.078;-0.058;2023-02-18T06:38:06;0;0;
56069;PMS5003;41944;52.078;-0.058;2023-02-18T06:40:33;1;1;
56069;PMS5003;41944;52.078;-0.058;2023-02-18T06:43:00;0;0;
56069;PMS5003;41944;52.078;-0.058;2023-02-18T06:45:27;3;2;
56069;PMS5003;41944;52.078;-0.058;2023-02-18T06:47:53;5;1;
56069;PMS5003;41944;52.078;-0.058;2023-02-18T06:50:21;5;1;
56069;PMS5003;41944;52.078;-0.058;2023-02-18T06:52:48;0;0;
56069;PMS5003;41944;52.078;-0.058;2023-02-18T06:55:15;2;2;
56069;PMS5003;41944;52.078;-0.058;2023-02-18T06:57:42;2;2;
56069;PMS5003;41944;52.078;-0.058;2023-02-18T07:00:09;3;2;
56069;PMS5003;41944;52.078;-0.058;2023-02-18T07:02:36;1;1;
56069;PMS5003;41944;52.078;-0.058;2023-02-18T07:05:03;2;2;
56069;PMS5003;41944;52.078;-0.058;2023-02-18T07:07:31;4;2;
56069;PMS5003;41944;52.078;-0.058;2023-02-18T07:09:58;4;2;
56069;PMS5003;41944;52.078;-0.058;2023-02-18T07:12:24;2;2;
56069;PMS5003;41944;52.078;-0.058;2023-02-18T07:14:51;5;2;
56069;PMS5003;41944;52.078;-0.058;2023-02-18T07:17:18;3;2;
56069;PMS5003;41944;52.078;-0.058;2023-02-18T07:19:45;2;1;
56069;PMS5003;41944;52.078;-0.058;2023-02-18T07:22:12;5;2;
56069;PMS5003;41944;52.078;-0.058;2023-02-18T07:24:40;1;1;
56069;PMS5003;41944;52.078;-0.058;2023-02-18T07:27:06;1;1;
56069;PMS5003;41944;52.078;-0.058;2023-02-18T07:29:33;0;0;
56069;PMS5003;41944;52.078;-0.058;2023-02-18T07:32:00;1;1;
56069;PMS5003;41944;52.078;-0.058;2023-02-18T07:34:27;4;2;
56069;PMS5003;41944;52.078;-0.058;2023-02-18T07:36:54;2;1;
56069;PMS5003;41944;52.078;-0.058;2023-02-18T07:39:21;2;2;
56069;PMS5003;41944;52.078;-0.058;2023-02-18T07:41:48;0;0;
56069;PMS5003;41944;52.078;-0.058;2023-02-18T07:44:15;2;2;
56069;PMS5003;41944;52.078;-0.058;2023-02-18T07:46:41;1;1;
56069;PMS5003;41944;52.078;-0.058;2023-02-18T07:49:08;1;1;
56069;PMS5003;41944;52.078;-0.058;2023-02-18T07:51:35;3;3;
56069;PMS5003;41944;52.078;-0.058;2023-02-18T07:54:02;5;2;
56069;PMS5003;41944;52.078;-0.058;2023-02-18T07:56:30;3;1;
56069;PMS5003;41944;52.078;-0.058;2023-02-18T07:58:57;2;2;
56069;PMS5003;41944;52.078;-0.058;2023-02-18T08:01:24;3;1;
56069;PMS5003;41944;52.078;-0.058;2023-02-18T08:03:50;2;1;
56069;PMS5003;41944;52.078;-0.058;2023-02-18T08:06:19;1;1;
56069;PMS5003;41944;52.078;-0.058;2023-02-18T08:08:50;3;1;
56069;PMS5003;41944;52.078;-0.058;2023-02-18T08:11:17;5;1;
56069;PMS5003;41944;52.078;-0.058;2023-02-18T08:13:44;1;1;
56069;PMS5003;41944;52.078;-0.058;2023-02-18T08:16:11;4;2;
56069;PMS5003;41944;52.078;-0.058;2023-02-18T08:18:39;2;2;
56069;PMS5003;41944;52.078;-0.058;2023-02-18T08:21:05;1;1;
56069;PMS5003;41944;52.078;-0.058;2023-02-18T08:23:32;2;2;
56069;PMS5003;41944;52.078;-0.058;2023-02-18T08:25:59;2;2;
56069;PMS5003;41944;52.078;-0.058;2023-02-18T08:28:26;2;2;
56069;PMS5003;41944;52.078;-0.058;2023-02-18T08:30:53;0;0;
56069;PMS5003;41944;52.078;-0.058;2023-02-18T08:33:21;2;2;
56069;PMS5003;41944;52.078;-0.058;2023-02-18T08:35:49;1;0;
56069;PMS5003;41944;52.078;-0.058;2023-02-18T08:38:18;1;1;
56069;PMS5003;41944;52.078;-0.058;2023-02-18T08:40:46;3;2;
56069;PMS5003;41944;52.078;-0.058;2023-02-18T08:43:14;3;1;
56069;PMS5003;41944;52.078;-0.058;2023-02-18T08:45:43;3;3;
56069;PMS5003;41944;52.078;-0.058;2023-02-18T08:48:11;2;2;
56069;PMS5003;41944;52.078;-0.058;2023-02-18T08:50:40;2;2;
56069;PMS5003;41944;52.078;-0.058;2023-02-18T08:53:07;5;2;
56069;PMS5003;41944;52.078;-0.058;2023-02-18T08:55:34;2;1;
56069;PMS5003;41944;52.078;-0.058;2023-02-18T08:58:00;2;2;
56069;PMS5003;41944;52.078;-0.058;2023-02-18T09:00:30;3;3;
56069;PMS5003;41944;52.078;-0.058;2023-02-18T09:02:58;4;1;
56069;PMS5003;41944;52.078;-0.058;2023-02-18T09:05:24;1;1;
56069;PMS5003;41944;52.078;-0.058;2023-02-18T09:07:51;5;2;
56069;PMS5003;41944;52.078;-0.058;2023-02-18T09:10:18;2;2;
56069;PMS5003;41944;52.078;-0.058;2023-02-18T09:12:46;2;1;
56069;PMS5003;41944;52.078;-0.058;2023-02-18T09:15:13;3;3;
56069;PMS5003;41944;52.078;-0.058;2023-02-18T09:17:40;2;2;
56069;PMS5003;41944;52.078;-0.058;2023-02-18T09:20:08;1;1;
56069;PMS5003;41944;52.078;-0.058;2023-02-18T09:22:35;3;2;
56069;PMS5003;41944;52.078;-0.058;2023-02-18T09:25:02;1;1;
56069;PMS5003;41944;52.078;-0.058;2023-02-18T09:27:30;1;1;
56069;PMS5003;41944;52.078;-0.058;2023-02-18T09:29:57;2;2;
56069;PMS5003;41944;52.078;-0.058;2023-02-18T09:32:23;1;1;
56069;PMS5003;41944;52.078;-0.058;2023-02-18T09:34:50;2;2;
56069;PMS5003;41944;52.078;-0.058;2023-02-18T09:37:17;1;1;
56069;PMS5003;41944;52.078;-0.058;2023-02-18T09:39:44;1;1;
56069;PMS5003;41944;52.078;-0.058;2023-02-18T09:42:12;4;2;
56069;PMS5003;41944;52.078;-0.058;2023-02-18T09:44:43;2;2;
56069;PMS5003;41944;52.078;-0.058;2023-02-18T09:47:16;1;1;
56069;PMS5003;41944;52.078;-0.058;2023-02-18T09:49:48;1;1;
56069;PMS5003;41944;52.078;-0.058;2023-02-18T09:52:20;2;2;
56069;PMS5003;41944;52.078;-0.058;2023-02-18T09:54:49;1;1;
56069;PMS5003;41944;52.078;-0.058;2023-02-18T09:57:20;1;1;
56069;PMS5003;41944;52.078;-0.058;2023-02-18T09:59:52;2;1;
56069;PMS5003;41944;52.078;-0.058;2023-02-18T10:02:25;1;1;
56069;PMS5003;41944;52.078;-0.058;2023-02-18T10:04:53;1;1;
56069;PMS5003;41944;52.078;-0.058;2023-02-18T10:07:24;4;3;
56069;PMS5003;41944;52.078;-0.058;2023-02-18T10:09:54;3;2;
56069;PMS5003;41944;52.078;-0.058;2023-02-18T10:12:25;3;1;
56069;PMS5003;41944;52.078;-0.058;2023-02-18T10:14:52;1;1;
56069;PMS5003;41944;52.078;-0.058;2023-02-18T10:17:22;1;1;
56069;PMS5003;41944;52.078;-0.058;2023-02-18T10:19:52;1;1;
56069;PMS5003;41944;52.078;-0.058;2023-02-18T10:22:21;1;1;
56069;PMS5003;41944;52.078;-0.058;2023-02-18T10:24:51;2;1;
56069;PMS5003;41944;52.078;-0.058;2023-02-18T10:27:23;1;1;
56069;PMS5003;41944;52.078;-0.058;2023-02-18T10:29:51;2;2;
56069;PMS5003;41944;52.078;-0.058;2023-02-18T10:32:20;4;3;
56069;PMS5003;41944;52.078;-0.058;2023-02-18T10:34:51;3;1;
56069;PMS5003;41944;52.078;-0.058;2023-02-18T10:37:27;2;2;
56069;PMS5003;41944;52.078;-0.058;2023-02-18T10:40:09;3;3;
56069;PMS5003;41944;52.078;-0.058;2023-02-18T10:42:45;1;1;
56069;PMS5003;41944;52.078;-0.058;2023-02-18T10:45:25;0;0;
56069;PMS5003;41944;52.078;-0.058;2023-02-18T10:48:03;2;1;
56069;PMS5003;41944;52.078;-0.058;2023-02-18T10:50:46;2;2;
56069;PMS5003;41944;52.078;-0.058;2023-02-18T10:53:15;2;2;
56069;PMS5003;41944;52.078;-0.058;2023-02-18T10:55:46;3;2;
56069;PMS5003;41944;52.078;-0.058;2023-02-18T10:58:30;1;1;
56069;PMS5003;41944;52.078;-0.058;2023-02-18T11:00:59;2;1;
56069;PMS5003;41944;52.078;-0.058;2023-02-18T11:03:37;3;1;
56069;PMS5003;41944;52.078;-0.058;2023-02-18T11:06:14;4;2;
56069;PMS5003;41944;52.078;-0.058;2023-02-18T11:08:45;2;2;
56069;PMS5003;41944;52.078;-0.058;2023-02-18T11:11:15;3;3;
56069;PMS5003;41944;52.078;-0.058;2023-02-18T11:13:50;1;0;
56069;PMS5003;41944;52.078;-0.058;2023-02-18T11:16:20;1;1;
56069;PMS5003;41944;52.078;-0.058;2023-02-18T11:18:48;2;2;
56069;PMS5003;41944;52.078;-0.058;2023-02-18T11:21:21;3;3;
56069;PMS5003;41944;52.078;-0.058;2023-02-18T11:23:54;1;1;
56069;PMS5003;41944;52.078;-0.058;2023-02-18T11:26:25;3;2;
56069;PMS5003;41944;52.078;-0.058;2023-02-18T11:28:56;3;3;
56069;PMS5003;41944;52.078;-0.058;2023-02-18T11:31:29;4;3;
56069;PMS5003;41944;52.078;-0.058;2023-02-18T11:34:09;2;2;
56069;PMS5003;41944;52.078;-0.058;2023-02-18T11:36:41;1;1;
56069;PMS5003;41944;52.078;-0.058;2023-02-18T11:39:15;4;2;
56069;PMS5003;41944;52.078;-0.058;2023-02-18T11:41:45;6;3;
56069;PMS5003;41944;52.078;-0.058;2023-02-18T11:44:17;6;6;
56069;PMS5003;41944;52.078;-0.058;2023-02-18T11:46:55;4;2;
56069;PMS5003;41944;52.078;-0.058;2023-02-18T11:49:24;2;2;
56069;PMS5003;41944;52.078;-0.058;2023-02-18T11:51:51;3;3;
56069;PMS5003;41944;52.078;-0.058;2023-02-18T11:54:23;4;4;
56069;PMS5003;41944;52.078;-0.058;2023-02-18T11:56:54;3;3;
56069;PMS5003;41944;52.078;-0.058;2023-02-18T11:59:23;9;7;
56069;PMS5003;41944;52.078;-0.058;2023-02-18T12:01:53;3;3;
56069;PMS5003;41944;52.078;-0.058;2023-02-18T12:04:26;23;21;
56069;PMS5003;41944;52.078;-0.058;2023-02-18T12:07:03;10;10;
56069;PMS5003;41944;52.078;-0.058;2023-02-18T12:09:46;8;7;
56069;PMS5003;41944;52.078;-0.058;2023-02-18T12:12:19;4;4;
56069;PMS5003;41944;52.078;-0.058;2023-02-18T12:14:53;5;5;
56069;PMS5003;41944;52.078;-0.058;2023-02-18T12:17:25;5;4;
56069;PMS5003;41944;52.078;-0.058;2023-02-18T12:20:12;6;3;
56069;PMS5003;41944;52.078;-0.058;2023-02-18T12:22:52;5;5;
56069;PMS5003;41944;52.078;-0.058;2023-02-18T12:25:29;3;3;
56069;PMS5003;41944;52.078;-0.058;2023-02-18T12:28:11;5;3;
56069;PMS5003;41944;52.078;-0.058;2023-02-18T12:30:57;3;3;
56069;PMS5003;41944;52.078;-0.058;2023-02-18T12:33:38;4;4;
56069;PMS5003;41944;52.078;-0.058;2023-02-18T12:36:20;3;3;
56069;PMS5003;41944;52.078;-0.058;2023-02-18T12:39:00;4;4;
56069;PMS5003;41944;52.078;-0.058;2023-02-18T12:41:39;5;4;
56069;PMS5003;41944;52.078;-0.058;2023-02-18T12:44:22;3;3;
56069;PMS5003;41944;52.078;-0.058;2023-02-18T12:47:03;2;2;
56069;PMS5003;41944;52.078;-0.058;2023-02-18T12:49:45;2;1;
56069;PMS5003;41944;52.078;-0.058;2023-02-18T12:52:29;3;3;
56069;PMS5003;41944;52.078;-0.058;2023-02-18T12:55:14;2;2;
56069;PMS5003;41944;52.078;-0.058;2023-02-18T12:57:52;3;2;
56069;PMS5003;41944;52.078;-0.058;2023-02-18T13:00:33;3;2;
56069;PMS5003;41944;52.078;-0.058;2023-02-18T13:03:24;4;3;
56069;PMS5003;41944;52.078;-0.058;2023-02-18T13:06:07;3;3;
56069;PMS5003;41944;52.078;-0.058;2023-02-18T13:08:49;4;2;
56069;PMS5003;41944;52.078;-0.058;2023-02-18T13:11:32;1;1;
56069;PMS5003;41944;52.078;-0.058;2023-02-18T13:14:08;2;2;
56069;PMS5003;41944;52.078;-0.058;2023-02-18T13:16:38;1;1;
56069;PMS5003;41944;52.078;-0.058;2023-02-18T13:19:13;2;2;
56069;PMS5003;41944;52.078;-0.058;2023-02-18T13:21:45;3;3;
56069;PMS5003;41944;52.078;-0.058;2023-02-18T13:24:18;4;2;
56069;PMS5003;41944;52.078;-0.058;2023-02-18T13:26:54;4;4;
56069;PMS5003;41944;52.078;-0.058;2023-02-18T13:29:29;5;4;
56069;PMS5003;41944;52.078;-0.058;2023-02-18T13:32:05;4;4;
56069;PMS5003;41944;52.078;-0.058;2023-02-18T13:34:40;2;2;
56069;PMS5003;41944;52.078;-0.058;2023-02-18T13:37:15;4;2;
56069;PMS5003;41944;52.078;-0.058;2023-02-18T13:39:52;3;3;
56069;PMS5003;41944;52.078;-0.058;2023-02-18T13:42:32;2;2;
56069;PMS5003;41944;52.078;-0.058;2023-02-18T13:45:05;6;4;
56069;PMS5003;41944;52.078;-0.058;2023-02-18T13:47:51;3;3;
56069;PMS5003;41944;52.078;-0.058;2023-02-18T13:50:23;7;2;
56069;PMS5003;41944;52.078;-0.058;2023-02-18T13:52:57;2;2;
56069;PMS5003;41944;52.078;-0.058;2023-02-18T13:55:38;2;2;
56069;PMS5003;41944;52.078;-0.058;2023-02-18T13:58:10;3;3;
56069;PMS5003;41944;52.078;-0.058;2023-02-18T14:00:41;4;4;
56069;PMS5003;41944;52.078;-0.058;2023-02-18T14:03:19;4;4;
56069;PMS5003;41944;52.078;-0.058;2023-02-18T14:05:58;4;4;
56069;PMS5003;41944;52.078;-0.058;2023-02-18T14:08:29;3;3;
56069;PMS5003;41944;52.078;-0.058;2023-02-18T14:13:19;4;4;
56069;PMS5003;41944;52.078;-0.058;2023-02-18T14:16:03;3;3;
56069;PMS5003;41944;52.078;-0.058;2023-02-18T14:18:31;4;4;
56069;PMS5003;41944;52.078;-0.058;2023-02-18T14:21:21;2;2;
56069;PMS5003;41944;52.078;-0.058;2023-02-18T14:24:02;2;2;
56069;PMS5003;41944;52.078;-0.058;2023-02-18T14:26:32;5;3;
56069;PMS5003;41944;52.078;-0.058;2023-02-18T14:29:04;3;3;
56069;PMS5003;41944;52.078;-0.058;2023-02-18T14:31:39;3;3;
56069;PMS5003;41944;52.078;-0.058;2023-02-18T14:34:21;6;5;
56069;PMS5003;41944;52.078;-0.058;2023-02-18T14:37:08;4;4;
56069;PMS5003;41944;52.078;-0.058;2023-02-18T14:39:51;4;3;
56069;PMS5003;41944;52.078;-0.058;2023-02-18T14:42:27;2;2;
56069;PMS5003;41944;52.078;-0.058;2023-02-18T14:45:08;4;4;
56069;PMS5003;41944;52.078;-0.058;2023-02-18T14:47:55;3;3;
56069;PMS5003;41944;52.078;-0.058;2023-02-18T14:50:38;6;4;
56069;PMS5003;41944;52.078;-0.058;2023-02-18T14:53:11;4;4;
56069;PMS5003;41944;52.078;-0.058;2023-02-18T14:55:42;5;5;
56069;PMS5003;41944;52.078;-0.058;2023-02-18T14:58:23;5;3;
56069;PMS5003;41944;52.078;-0.058;2023-02-18T15:00:56;4;4;
56069;PMS5003;41944;52.078;-0.058;2023-02-18T15:03:24;2;2;
56069;PMS5003;41944;52.078;-0.058;2023-02-18T15:05:52;3;3;
56069;PMS5003;41944;52.078;-0.058;2023-02-18T15:08:19;3;3;
56069;PMS5003;41944;52.078;-0.058;2023-02-18T15:10:49;5;3;
56069;PMS5003;41944;52.078;-0.058;2023-02-18T15:13:23;3;3;
56069;PMS5003;41944;52.078;-0.058;2023-02-18T15:15:54;4;4;
56069;PMS5003;41944;52.078;-0.058;2023-02-18T15:18:27;5;4;
56069;PMS5003;41944;52.078;-0.058;2023-02-18T15:20:56;3;3;
56069;PMS5003;41944;52.078;-0.058;2023-02-18T15:23:27;5;4;
56069;PMS5003;41944;52.078;-0.058;2023-02-18T15:25:55;8;8;
56069;PMS5003;41944;52.078;-0.058;2023-02-18T15:28:25;5;5;
56069;PMS5003;41944;52.078;-0.058;2023-02-18T15:30:55;2;2;
56069;PMS5003;41944;52.078;-0.058;2023-02-18T15:33:23;4;4;
56069;PMS5003;41944;52.078;-0.058;2023-02-18T15:35:51;3;3;
56069;PMS5003;41944;52.078;-0.058;2023-02-18T15:38:25;5;4;
56069;PMS5003;41944;52.078;-0.058;2023-02-18T15:40:53;4;4;
56069;PMS5003;41944;52.078;-0.058;2023-02-18T15:43:22;3;3;
56069;PMS5003;41944;52.078;-0.058;2023-02-18T15:45:51;3;3;
56069;PMS5003;41944;52.078;-0.058;2023-02-18T15:48:23;3;3;
56069;PMS5003;41944;52.078;-0.058;2023-02-18T15:50:55;4;2;
56069;PMS5003;41944;52.078;-0.058;2023-02-18T15:53:23;3;3;
56069;PMS5003;41944;52.078;-0.058;2023-02-18T15:55:53;4;4;
56069;PMS5003;41944;52.078;-0.058;2023-02-18T15:58:22;4;4;
56069;PMS5003;41944;52.078;-0.058;2023-02-18T16:00:53;4;4;
56069;PMS5003;41944;52.078;-0.058;2023-02-18T16:03:23;7;3;
56069;PMS5003;41944;52.078;-0.058;2023-02-18T16:06:06;3;3;
56069;PMS5003;41944;52.078;-0.058;2023-02-18T16:08:36;4;3;
56069;PMS5003;41944;52.078;-0.058;2023-02-18T16:11:04;5;3;
56069;PMS5003;41944;52.078;-0.058;2023-02-18T16:13:35;2;2;
56069;PMS5003;41944;52.078;-0.058;2023-02-18T16:16:17;2;2;
56069;PMS5003;41944;52.078;-0.058;2023-02-18T16:18:48;2;2;
56069;PMS5003;41944;52.078;-0.058;2023-02-18T16:21:22;3;3;
56069;PMS5003;41944;52.078;-0.058;2023-02-18T16:23:51;3;3;
56069;PMS5003;41944;52.078;-0.058;2023-02-18T16:26:21;3;3;
56069;PMS5003;41944;52.078;-0.058;2023-02-18T16:28:53;1;1;
56069;PMS5003;41944;52.078;-0.058;2023-02-18T16:31:25;4;3;
56069;PMS5003;41944;52.078;-0.058;2023-02-18T16:33:52;2;2;
56069;PMS5003;41944;52.078;-0.058;2023-02-18T16:36:19;2;2;
56069;PMS5003;41944;52.078;-0.058;2023-02-18T16:38:49;2;2;
56069;PMS5003;41944;52.078;-0.058;2023-02-18T16:41:16;1;1;
56069;PMS5003;41944;52.078;-0.058;2023-02-18T16:43:43;2;2;
56069;PMS5003;41944;52.078;-0.058;2023-02-18T16:46:12;4;1;
56069;PMS5003;41944;52.078;-0.058;2023-02-18T16:48:43;2;2;
56069;PMS5003;41944;52.078;-0.058;2023-02-18T16:51:12;2;2;
56069;PMS5003;41944;52.078;-0.058;2023-02-18T16:53:42;2;2;
56069;PMS5003;41944;52.078;-0.058;2023-02-18T16:56:12;4;2;
56069;PMS5003;41944;52.078;-0.058;2023-02-18T16:58:41;3;2;